Weather at Claxton Evans County Airport

Public forecast

Using degrees Fahrenheit for public forecast. Weather courtesy of forecast.io.

Current aviation weather report (METAR) for Claxton Evans County Airport

Retrieved 2021/05/16 21:35 UTC (5 minutes ago):

KCWV 162135Z AUTO 13003KT 10SM CLR 27/09 A3018 RMK AO2 T02700088

Closest aviation forecast (TAF) to Claxton Evans County Airport

Closest forecast is Savannah Hilton Head International Airport, 34.2 nm (63.3 km) E. Retrieved 2021/05/16 18:28 UTC (3 hours ago):

TAF KSAV 161720Z 1618/1718 05005KT P6SM FEW060 FM162100 15009KT P6SM FEW060 FM170200 VRB03KT P6SM FEW250